sensor_id;sensor_type;location;lat;lon;timestamp;temperature;humidity
20398;DHT22;10358;49.590;11.030;2023-09-30T04:13:17;14.40;99.90
20398;DHT22;10358;49.590;11.030;2023-09-30T04:15:44;14.20;99.90
20398;DHT22;10358;49.590;11.030;2023-09-30T04:18:12;14.20;99.90
20398;DHT22;10358;49.590;11.030;2023-09-30T04:20:38;14.10;99.90
20398;DHT22;10358;49.590;11.030;2023-09-30T04:23:05;14.10;99.90
20398;DHT22;10358;49.590;11.030;2023-09-30T04:25:32;14.10;99.90
20398;DHT22;10358;49.590;11.030;2023-09-30T04:27:58;14.00;99.90
20398;DHT22;10358;49.590;11.030;2023-09-30T04:30:23;14.00;99.90
20398;DHT22;10358;49.590;11.030;2023-09-30T04:32:49;14.00;99.90
20398;DHT22;10358;49.590;11.030;2023-09-30T04:35:14;14.00;99.90
20398;DHT22;10358;49.590;11.030;2023-09-30T04:37:40;14.00;99.90
20398;DHT22;10358;49.590;11.030;2023-09-30T04:40:08;14.00;99.90
20398;DHT22;10358;49.590;11.030;2023-09-30T04:42:41;14.00;99.90
20398;DHT22;10358;49.590;11.030;2023-09-30T04:45:07;13.90;99.90
20398;DHT22;10358;49.590;11.030;2023-09-30T04:47:33;13.90;99.90
20398;DHT22;10358;49.590;11.030;2023-09-30T04:49:59;14.00;99.90
20398;DHT22;10358;49.590;11.030;2023-09-30T04:52:24;13.90;99.90
20398;DHT22;10358;49.590;11.030;2023-09-30T04:54:53;13.90;99.90
20398;DHT22;10358;49.590;11.030;2023-09-30T04:57:18;13.90;99.90
20398;DHT22;10358;49.590;11.030;2023-09-30T04:59:45;13.90;99.90
20398;DHT22;10358;49.590;11.030;2023-09-30T05:02:12;13.80;99.90
20398;DHT22;10358;49.590;11.030;2023-09-30T05:04:40;13.80;99.90
20398;DHT22;10358;49.590;11.030;2023-09-30T05:07:06;13.80;99.90
20398;DHT22;10358;49.590;11.030;2023-09-30T05:09:31;13.80;99.90
20398;DHT22;10358;49.590;11.030;2023-09-30T05:11:57;13.80;99.90
20398;DHT22;10358;49.590;11.030;2023-09-30T05:14:22;13.80;99.90
20398;DHT22;10358;49.590;11.030;2023-09-30T05:16:48;13.80;99.90
20398;DHT22;10358;49.590;11.030;2023-09-30T05:19:14;13.80;99.90
20398;DHT22;10358;49.590;11.030;2023-09-30T05:21:39;13.80;99.90
20398;DHT22;10358;49.590;11.030;2023-09-30T05:24:05;13.80;99.90
20398;DHT22;10358;49.590;11.030;2023-09-30T05:26:31;13.80;99.90
20398;DHT22;10358;49.590;11.030;2023-09-30T05:28:56;13.80;99.90
20398;DHT22;10358;49.590;11.030;2023-09-30T05:31:22;13.80;99.90
20398;DHT22;10358;49.590;11.030;2023-09-30T05:33:48;13.80;99.90
20398;DHT22;10358;49.590;11.030;2023-09-30T05:36:13;13.80;99.90
20398;DHT22;10358;49.590;11.030;2023-09-30T05:38:39;13.80;99.90
20398;DHT22;10358;49.590;11.030;2023-09-30T05:41:05;13.80;99.90
20398;DHT22;10358;49.590;11.030;2023-09-30T05:43:32;13.80;99.90
20398;DHT22;10358;49.590;11.030;2023-09-30T05:45:57;13.80;99.90
20398;DHT22;10358;49.590;11.030;2023-09-30T05:48:24;13.80;99.90
20398;DHT22;10358;49.590;11.030;2023-09-30T05:50:49;13.80;99.90
20398;DHT22;10358;49.590;11.030;2023-09-30T05:53:15;13.80;99.90
20398;DHT22;10358;49.590;11.030;2023-09-30T05:55:41;13.80;99.90
20398;DHT22;10358;49.590;11.030;2023-09-30T05:58:13;13.90;99.90
20398;DHT22;10358;49.590;11.030;2023-09-30T06:00:40;13.90;99.90
20398;DHT22;10358;49.590;11.030;2023-09-30T06:03:07;13.90;99.90
20398;DHT22;10358;49.590;11.030;2023-09-30T06:05:33;13.90;99.90
20398;DHT22;10358;49.590;11.030;2023-09-30T06:08:00;13.90;99.90
20398;DHT22;10358;49.590;11.030;2023-09-30T06:10:30;14.00;99.90
20398;DHT22;10358;49.590;11.030;2023-09-30T06:12:56;14.00;99.90
20398;DHT22;10358;49.590;11.030;2023-09-30T06:15:24;14.00;99.90
20398;DHT22;10358;49.590;11.030;2023-09-30T06:17:52;14.10;99.90
20398;DHT22;10358;49.590;11.030;2023-09-30T06:20:19;14.10;99.90
20398;DHT22;10358;49.590;11.030;2023-09-30T06:22:48;14.10;99.90
20398;DHT22;10358;49.590;11.030;2023-09-30T06:25:17;14.20;99.90
20398;DHT22;10358;49.590;11.030;2023-09-30T06:27:46;14.30;99.90
20398;DHT22;10358;49.590;11.030;2023-09-30T06:30:15;14.30;99.90
20398;DHT22;10358;49.590;11.030;2023-09-30T06:32:45;14.30;99.90
20398;DHT22;10358;49.590;11.030;2023-09-30T06:35:11;14.40;99.90
20398;DHT22;10358;49.590;11.030;2023-09-30T06:37:37;14.40;99.90
20398;DHT22;10358;49.590;11.030;2023-09-30T06:40:07;14.50;99.90
20398;DHT22;10358;49.590;11.030;2023-09-30T06:42:34;14.50;99.90
20398;DHT22;10358;49.590;11.030;2023-09-30T06:45:01;14.50;99.90
20398;DHT22;10358;49.590;11.030;2023-09-30T06:47:33;14.60;99.90
20398;DHT22;10358;49.590;11.030;2023-09-30T06:50:08;14.60;99.90
20398;DHT22;10358;49.590;11.030;2023-09-30T06:52:35;14.60;99.90
20398;DHT22;10358;49.590;11.030;2023-09-30T06:55:04;14.80;99.90
20398;DHT22;10358;49.590;11.030;2023-09-30T06:57:34;14.80;99.90
20398;DHT22;10358;49.590;11.030;2023-09-30T07:00:00;14.80;99.90
20398;DHT22;10358;49.590;11.030;2023-09-30T07:02:25;14.80;99.90
20398;DHT22;10358;49.590;11.030;2023-09-30T07:04:52;14.90;99.90
20398;DHT22;10358;49.590;11.030;2023-09-30T07:07:18;14.90;99.90
20398;DHT22;10358;49.590;11.030;2023-09-30T07:09:44;14.90;99.90
20398;DHT22;10358;49.590;11.030;2023-09-30T07:12:09;15.00;99.90
20398;DHT22;10358;49.590;11.030;2023-09-30T07:14:35;15.00;99.90
20398;DHT22;10358;49.590;11.030;2023-09-30T07:17:00;15.20;99.90
20398;DHT22;10358;49.590;11.030;2023-09-30T07:19:26;15.30;99.90
20398;DHT22;10358;49.590;11.030;2023-09-30T07:21:51;15.30;99.90
20398;DHT22;10358;49.590;11.030;2023-09-30T07:24:17;15.40;99.90
20398;DHT22;10358;49.590;11.030;2023-09-30T07:26:42;15.50;99.90
20398;DHT22;10358;49.590;11.030;2023-09-30T07:29:09;15.50;99.90
20398;DHT22;10358;49.590;11.030;2023-09-30T07:31:35;15.40;99.90
20398;DHT22;10358;49.590;11.030;2023-09-30T07:34:01;15.30;99.90
20398;DHT22;10358;49.590;11.030;2023-09-30T07:36:27;15.40;99.90
20398;DHT22;10358;49.590;11.030;2023-09-30T07:38:53;15.40;99.90
20398;DHT22;10358;49.590;11.030;2023-09-30T07:41:19;15.40;99.90
20398;DHT22;10358;49.590;11.030;2023-09-30T07:43:45;15.40;99.90
20398;DHT22;10358;49.590;11.030;2023-09-30T07:46:10;15.30;99.90
20398;DHT22;10358;49.590;11.030;2023-09-30T07:48:36;15.30;99.90
20398;DHT22;10358;49.590;11.030;2023-09-30T07:51:01;15.30;99.90
20398;DHT22;10358;49.590;11.030;2023-09-30T07:53:27;15.20;99.90
20398;DHT22;10358;49.590;11.030;2023-09-30T07:55:53;15.20;99.90
20398;DHT22;10358;49.590;11.030;2023-09-30T07:58:19;15.10;99.90
20398;DHT22;10358;49.590;11.030;2023-09-30T08:00:45;15.20;99.90
20398;DHT22;10358;49.590;11.030;2023-09-30T08:03:11;15.20;99.90
20398;DHT22;10358;49.590;11.030;2023-09-30T08:05:37;15.20;99.90
20398;DHT22;10358;49.590;11.030;2023-09-30T08:08:03;15.30;99.90
20398;DHT22;10358;49.590;11.030;2023-09-30T08:10:29;15.30;99.90
20398;DHT22;10358;49.590;11.030;2023-09-30T08:12:57;15.30;99.90
20398;DHT22;10358;49.590;11.030;2023-09-30T08:15:24;15.30;99.90
20398;DHT22;10358;49.590;11.030;2023-09-30T08:17:50;15.40;99.90
20398;DHT22;10358;49.590;11.030;2023-09-30T08:20:16;15.40;99.90
20398;DHT22;10358;49.590;11.030;2023-09-30T08:22:41;15.50;99.90
20398;DHT22;10358;49.590;11.030;2023-09-30T08:25:07;15.50;99.90
20398;DHT22;10358;49.590;11.030;2023-09-30T08:27:33;15.50;99.90
20398;DHT22;10358;49.590;11.030;2023-09-30T08:30:00;15.50;99.90
20398;DHT22;10358;49.590;11.030;2023-09-30T08:32:26;15.60;99.90
20398;DHT22;10358;49.590;11.030;2023-09-30T08:34:52;15.70;99.90
20398;DHT22;10358;49.590;11.030;2023-09-30T08:37:17;15.80;99.90
20398;DHT22;10358;49.590;11.030;2023-09-30T08:39:43;15.80;99.90
20398;DHT22;10358;49.590;11.030;2023-09-30T08:42:09;15.80;99.90
20398;DHT22;10358;49.590;11.030;2023-09-30T08:44:38;15.70;99.90
20398;DHT22;10358;49.590;11.030;2023-09-30T08:47:07;15.70;99.90
20398;DHT22;10358;49.590;11.030;2023-09-30T08:49:39;15.70;99.90
20398;DHT22;10358;49.590;11.030;2023-09-30T08:52:06;15.70;99.90
20398;DHT22;10358;49.590;11.030;2023-09-30T08:54:32;15.80;99.90
20398;DHT22;10358;49.590;11.030;2023-09-30T08:56:58;15.80;99.90
20398;DHT22;10358;49.590;11.030;2023-09-30T08:59:25;15.70;99.90
20398;DHT22;10358;49.590;11.030;2023-09-30T09:01:51;15.70;99.90
20398;DHT22;10358;49.590;11.030;2023-09-30T09:04:17;15.80;99.90
20398;DHT22;10358;49.590;11.030;2023-09-30T09:06:43;15.90;99.90
20398;DHT22;10358;49.590;11.030;2023-09-30T09:09:17;15.80;99.90
20398;DHT22;10358;49.590;11.030;2023-09-30T09:11:44;15.80;99.90
20398;DHT22;10358;49.590;11.030;2023-09-30T09:14:09;15.80;99.90
20398;DHT22;10358;49.590;11.030;2023-09-30T09:16:35;15.80;99.90
20398;DHT22;10358;49.590;11.030;2023-09-30T09:19:14;16.00;99.90
20398;DHT22;10358;49.590;11.030;2023-09-30T09:21:56;15.90;99.90
20398;DHT22;10358;49.590;11.030;2023-09-30T09:24:30;15.90;99.90
20398;DHT22;10358;49.590;11.030;2023-09-30T09:27:06;15.90;99.90
20398;DHT22;10358;49.590;11.030;2023-09-30T09:29:33;15.90;99.90
20398;DHT22;10358;49.590;11.030;2023-09-30T09:32:17;16.00;99.90
20398;DHT22;10358;49.590;11.030;2023-09-30T09:34:44;16.10;99.90
20398;DHT22;10358;49.590;11.030;2023-09-30T09:37:20;16.20;99.90
20398;DHT22;10358;49.590;11.030;2023-09-30T09:39:55;16.40;99.90
20398;DHT22;10358;49.590;11.030;2023-09-30T09:42:32;16.50;99.90
20398;DHT22;10358;49.590;11.030;2023-09-30T09:45:03;16.60;99.90
20398;DHT22;10358;49.590;11.030;2023-09-30T09:47:32;16.60;99.90
20398;DHT22;10358;49.590;11.030;2023-09-30T09:49:58;16.60;99.90
20398;DHT22;10358;49.590;11.030;2023-09-30T09:52:25;16.80;99.90
20398;DHT22;10358;49.590;11.030;2023-09-30T09:54:51;17.00;99.90
20398;DHT22;10358;49.590;11.030;2023-09-30T09:57:18;17.20;99.90
20398;DHT22;10358;49.590;11.030;2023-09-30T09:59:44;17.30;99.90
20398;DHT22;10358;49.590;11.030;2023-09-30T10:02:13;17.40;99.90
20398;DHT22;10358;49.590;11.030;2023-09-30T10:04:44;17.50;99.90
20398;DHT22;10358;49.590;11.030;2023-09-30T10:09:47;17.70;99.90
20398;DHT22;10358;49.590;11.030;2023-09-30T10:12:15;17.80;99.90
20398;DHT22;10358;49.590;11.030;2023-09-30T10:14:41;17.80;99.90
20398;DHT22;10358;49.590;11.030;2023-09-30T10:17:06;17.80;99.90
20398;DHT22;10358;49.590;11.030;2023-09-30T10:19:32;17.80;99.90
20398;DHT22;10358;49.590;11.030;2023-09-30T10:24:46;17.90;99.90
20398;DHT22;10358;49.590;11.030;2023-09-30T10:37:45;17.90;99.90
20398;DHT22;10358;49.590;11.030;2023-09-30T10:40:27;18.00;99.90
20398;DHT22;10358;49.590;11.030;2023-09-30T10:42:53;18.00;99.90
20398;DHT22;10358;49.590;11.030;2023-09-30T10:51:16;18.20;99.90
20398;DHT22;10358;49.590;11.030;2023-09-30T10:53:48;18.20;99.90
20398;DHT22;10358;49.590;11.030;2023-09-30T10:56:15;18.20;99.90
20398;DHT22;10358;49.590;11.030;2023-09-30T10:58:41;18.30;99.90
20398;DHT22;10358;49.590;11.030;2023-09-30T11:01:08;18.40;99.90
20398;DHT22;10358;49.590;11.030;2023-09-30T11:03:34;18.40;99.90
20398;DHT22;10358;49.590;11.030;2023-09-30T11:06:00;18.40;99.90
20398;DHT22;10358;49.590;11.030;2023-09-30T11:08:28;18.30;99.90
20398;DHT22;10358;49.590;11.030;2023-09-30T11:10:57;18.40;99.90
20398;DHT22;10358;49.590;11.030;2023-09-30T11:13:23;18.50;99.90
20398;DHT22;10358;49.590;11.030;2023-09-30T11:16:00;18.60;99.90
20398;DHT22;10358;49.590;11.030;2023-09-30T11:18:26;18.70;99.90
20398;DHT22;10358;49.590;11.030;2023-09-30T11:21:12;18.60;99.90
20398;DHT22;10358;49.590;11.030;2023-09-30T11:23:39;18.40;99.90
20398;DHT22;10358;49.590;11.030;2023-09-30T11:26:06;18.40;99.90
20398;DHT22;10358;49.590;11.030;2023-09-30T11:28:41;18.40;99.90
20398;DHT22;10358;49.590;11.030;2023-09-30T11:31:11;18.30;99.90
20398;DHT22;10358;49.590;11.030;2023-09-30T11:33:55;18.30;99.90
20398;DHT22;10358;49.590;11.030;2023-09-30T11:36:23;18.30;99.90
20398;DHT22;10358;49.590;11.030;2023-09-30T11:38:50;18.30;99.90
20398;DHT22;10358;49.590;11.030;2023-09-30T11:41:18;18.30;99.90
20398;DHT22;10358;49.590;11.030;2023-09-30T11:44:01;18.40;99.90
20398;DHT22;10358;49.590;11.030;2023-09-30T11:46:27;18.40;99.90
20398;DHT22;10358;49.590;11.030;2023-09-30T11:49:03;18.40;99.90
20398;DHT22;10358;49.590;11.030;2023-09-30T11:51:31;18.40;99.90
20398;DHT22;10358;49.590;11.030;2023-09-30T11:54:08;18.40;99.90
20398;DHT22;10358;49.590;11.030;2023-09-30T11:56:36;18.50;99.90
20398;DHT22;10358;49.590;11.030;2023-09-30T11:59:02;18.60;99.90
20398;DHT22;10358;49.590;11.030;2023-09-30T12:01:29;18.70;99.90
20398;DHT22;10358;49.590;11.030;2023-09-30T12:03:58;18.60;99.90
20398;DHT22;10358;49.590;11.030;2023-09-30T12:06:23;18.70;99.90
20398;DHT22;10358;49.590;11.030;2023-09-30T12:08:49;18.70;99.90
20398;DHT22;10358;49.590;11.030;2023-09-30T12:11:20;18.70;99.90
20398;DHT22;10358;49.590;11.030;2023-09-30T12:13:45;18.60;99.90
20398;DHT22;10358;49.590;11.030;2023-09-30T12:16:14;18.60;99.90
20398;DHT22;10358;49.590;11.030;2023-09-30T12:18:39;18.70;99.90
20398;DHT22;10358;49.590;11.030;2023-09-30T12:21:12;18.70;99.90
20398;DHT22;10358;49.590;11.030;2023-09-30T12:23:39;18.70;99.90
20398;DHT22;10358;49.590;11.030;2023-09-30T12:26:05;18.70;99.90
20398;DHT22;10358;49.590;11.030;2023-09-30T12:28:34;18.80;99.90
20398;DHT22;10358;49.590;11.030;2023-09-30T12:31:00;18.70;99.90
20398;DHT22;10358;49.590;11.030;2023-09-30T12:33:29;18.80;99.90
20398;DHT22;10358;49.590;11.030;2023-09-30T12:35:56;19.00;99.90
20398;DHT22;10358;49.590;11.030;2023-09-30T12:38:22;19.10;99.90
20398;DHT22;10358;49.590;11.030;2023-09-30T12:40:47;19.20;99.90
20398;DHT22;10358;49.590;11.030;2023-09-30T12:43:14;19.40;99.90
20398;DHT22;10358;49.590;11.030;2023-09-30T12:45:39;19.50;99.90
20398;DHT22;10358;49.590;11.030;2023-09-30T12:48:05;19.60;99.90
20398;DHT22;10358;49.590;11.030;2023-09-30T12:50:30;19.60;99.90
20398;DHT22;10358;49.590;11.030;2023-09-30T12:52:56;19.70;99.90
20398;DHT22;10358;49.590;11.030;2023-09-30T12:55:22;19.70;99.90
20398;DHT22;10358;49.590;11.030;2023-09-30T12:57:47;19.70;99.90
20398;DHT22;10358;49.590;11.030;2023-09-30T13:00:13;19.80;99.90
20398;DHT22;10358;49.590;11.030;2023-09-30T13:02:41;20.00;99.90
20398;DHT22;10358;49.590;11.030;2023-09-30T13:05:06;20.10;99.90
20398;DHT22;10358;49.590;11.030;2023-09-30T13:07:32;20.20;99.90
20398;DHT22;10358;49.590;11.030;2023-09-30T13:09:58;20.40;99.90
20398;DHT22;10358;49.590;11.030;2023-09-30T13:12:28;20.40;99.90
20398;DHT22;10358;49.590;11.030;2023-09-30T13:14:54;20.60;99.90
20398;DHT22;10358;49.590;11.030;2023-09-30T13:17:22;20.70;99.90
20398;DHT22;10358;49.590;11.030;2023-09-30T13:19:47;20.70;99.90
20398;DHT22;10358;49.590;11.030;2023-09-30T13:22:13;20.80;99.90
20398;DHT22;10358;49.590;11.030;2023-09-30T13:24:38;21.10;99.90
20398;DHT22;10358;49.590;11.030;2023-09-30T13:27:05;21.20;99.90
20398;DHT22;10358;49.590;11.030;2023-09-30T13:29:31;21.40;99.90
20398;DHT22;10358;49.590;11.030;2023-09-30T13:31:57;21.40;99.90
20398;DHT22;10358;49.590;11.030;2023-09-30T13:34:23;21.20;99.90
20398;DHT22;10358;49.590;11.030;2023-09-30T13:36:48;20.90;99.90
20398;DHT22;10358;49.590;11.030;2023-09-30T13:39:14;20.70;99.90
20398;DHT22;10358;49.590;11.030;2023-09-30T13:41:43;20.70;99.90
20398;DHT22;10358;49.590;11.030;2023-09-30T13:44:08;20.60;99.90
20398;DHT22;10358;49.590;11.030;2023-09-30T13:46:34;20.60;99.90
20398;DHT22;10358;49.590;11.030;2023-09-30T13:48:59;20.60;99.90
20398;DHT22;10358;49.590;11.030;2023-09-30T13:51:25;20.70;99.90
20398;DHT22;10358;49.590;11.030;2023-09-30T13:53:51;20.70;99.90
20398;DHT22;10358;49.590;11.030;2023-09-30T13:56:19;20.90;99.90
20398;DHT22;10358;49.590;11.030;2023-09-30T13:58:44;21.20;99.90
20398;DHT22;10358;49.590;11.030;2023-09-30T14:01:12;21.60;99.90
20398;DHT22;10358;49.590;11.030;2023-09-30T14:03:38;21.90;99.90
20398;DHT22;10358;49.590;11.030;2023-09-30T14:06:15;22.00;99.90
20398;DHT22;10358;49.590;11.030;2023-09-30T14:08:41;22.20;99.90
20398;DHT22;10358;49.590;11.030;2023-09-30T14:11:10;22.40;99.90
20398;DHT22;10358;49.590;11.030;2023-09-30T14:13:37;22.60;99.90
20398;DHT22;10358;49.590;11.030;2023-09-30T14:16:04;22.60;99.90
20398;DHT22;10358;49.590;11.030;2023-09-30T14:18:30;22.50;99.90
20398;DHT22;10358;49.590;11.030;2023-09-30T14:20:55;22.50;99.90
20398;DHT22;10358;49.590;11.030;2023-09-30T14:23:21;22.70;99.90
20398;DHT22;10358;49.590;11.030;2023-09-30T14:25:46;22.70;99.90
20398;DHT22;10358;49.590;11.030;2023-09-30T14:28:12;22.90;99.90
20398;DHT22;10358;49.590;11.030;2023-09-30T14:30:39;23.30;99.90
20398;DHT22;10358;49.590;11.030;2023-09-30T14:33:04;23.70;98.90
20398;DHT22;10358;49.590;11.030;2023-09-30T14:35:32;23.30;97.50
20398;DHT22;10358;49.590;11.030;2023-09-30T14:37:57;22.90;97.20
20398;DHT22;10358;49.590;11.030;2023-09-30T14:40:23;22.70;97.80
20398;DHT22;10358;49.590;11.030;2023-09-30T14:42:48;22.70;98.40
20398;DHT22;10358;49.590;11.030;2023-09-30T14:45:14;22.90;97.50
20398;DHT22;10358;49.590;11.030;2023-09-30T14:47:39;22.80;97.40
20398;DHT22;10358;49.590;11.030;2023-09-30T14:50:08;22.70;97.60
20398;DHT22;10358;49.590;11.030;2023-09-30T14:52:34;22.50;96.90
20398;DHT22;10358;49.590;11.030;2023-09-30T14:55:00;22.20;97.20
20398;DHT22;10358;49.590;11.030;2023-09-30T14:57:25;21.80;97.60
20398;DHT22;10358;49.590;11.030;2023-09-30T14:59:51;21.40;98.20
20398;DHT22;10358;49.590;11.030;2023-09-30T15:02:17;21.30;99.10
20398;DHT22;10358;49.590;11.030;2023-09-30T15:04:42;21.30;99.60
20398;DHT22;10358;49.590;11.030;2023-09-30T15:07:08;21.30;99.60
20398;DHT22;10358;49.590;11.030;2023-09-30T15:09:34;21.20;99.60
20398;DHT22;10358;49.590;11.030;2023-09-30T15:12:00;21.10;99.70
20398;DHT22;10358;49.590;11.030;2023-09-30T15:14:26;21.00;99.40
20398;DHT22;10358;49.590;11.030;2023-09-30T15:16:51;20.80;99.40
20398;DHT22;10358;49.590;11.030;2023-09-30T15:19:17;20.60;99.50
20398;DHT22;10358;49.590;11.030;2023-09-30T15:21:43;20.50;99.80
20398;DHT22;10358;49.590;11.030;2023-09-30T15:24:09;20.40;99.90
20398;DHT22;10358;49.590;11.030;2023-09-30T15:26:36;20.40;99.90
20398;DHT22;10358;49.590;11.030;2023-09-30T15:29:01;20.30;99.90
20398;DHT22;10358;49.590;11.030;2023-09-30T15:31:29;20.30;99.90
20398;DHT22;10358;49.590;11.030;2023-09-30T15:33:57;20.30;99.90
20398;DHT22;10358;49.590;11.030;2023-09-30T15:36:23;20.30;99.90
20398;DHT22;10358;49.590;11.030;2023-09-30T15:38:49;20.30;99.90
20398;DHT22;10358;49.590;11.030;2023-09-30T15:41:20;20.30;99.90
20398;DHT22;10358;49.590;11.030;2023-09-30T15:43:49;20.30;99.90
20398;DHT22;10358;49.590;11.030;2023-09-30T15:46:14;20.30;99.90
20398;DHT22;10358;49.590;11.030;2023-09-30T15:48:40;20.30;99.90
20398;DHT22;10358;49.590;11.030;2023-09-30T15:51:06;20.40;99.90
20398;DHT22;10358;49.590;11.030;2023-09-30T15:53:31;20.50;99.90
20398;DHT22;10358;49.590;11.030;2023-09-30T15:55:59;20.60;99.90
20398;DHT22;10358;49.590;11.030;2023-09-30T15:58:25;20.80;99.90
20398;DHT22;10358;49.590;11.030;2023-09-30T16:00:50;21.10;99.90
20398;DHT22;10358;49.590;11.030;2023-09-30T16:03:17;21.40;99.90
20398;DHT22;10358;49.590;11.030;2023-09-30T16:05:42;21.70;99.90
20398;DHT22;10358;49.590;11.030;2023-09-30T16:08:08;21.70;99.90
20398;DHT22;10358;49.590;11.030;2023-09-30T16:10:34;21.70;99.90
20398;DHT22;10358;49.590;11.030;2023-09-30T16:13:02;21.70;99.90
20398;DHT22;10358;49.590;11.030;2023-09-30T16:15:27;21.50;99.90
20398;DHT22;10358;49.590;11.030;2023-09-30T16:17:53;21.30;99.90
20398;DHT22;10358;49.590;11.030;2023-09-30T16:20:19;21.10;99.90
20398;DHT22;10358;49.590;11.030;2023-09-30T16:22:51;20.90;99.90
20398;DHT22;10358;49.590;11.030;2023-09-30T16:25:16;20.70;99.90
20398;DHT22;10358;49.590;11.030;2023-09-30T16:27:42;20.50;99.90
20398;DHT22;10358;49.590;11.030;2023-09-30T16:30:08;20.30;99.90
20398;DHT22;10358;49.590;11.030;2023-09-30T16:32:34;20.20;99.90
20398;DHT22;10358;49.590;11.030;2023-09-30T16:35:03;20.00;99.90
20398;DHT22;10358;49.590;11.030;2023-09-30T16:37:29;19.90;99.90
20398;DHT22;10358;49.590;11.030;2023-09-30T16:39:55;19.70;99.90
20398;DHT22;10358;49.590;11.030;2023-09-30T16:42:20;19.40;99.90
20398;DHT22;10358;49.590;11.030;2023-09-30T16:44:46;19.30;99.90
20398;DHT22;10358;49.590;11.030;2023-09-30T16:47:11;19.00;99.90
20398;DHT22;10358;49.590;11.030;2023-09-30T16:49:37;18.90;99.90
20398;DHT22;10358;49.590;11.030;2023-09-30T16:52:02;18.70;99.90
20398;DHT22;10358;49.590;11.030;2023-09-30T16:54:28;18.50;99.90
20398;DHT22;10358;49.590;11.030;2023-09-30T16:56:53;18.30;99.90
20398;DHT22;10358;49.590;11.030;2023-09-30T16:59:21;18.10;99.90
20398;DHT22;10358;49.590;11.030;2023-09-30T17:01:46;17.90;99.90
20398;DHT22;10358;49.590;11.030;2023-09-30T17:04:12;17.80;99.90
20398;DHT22;10358;49.590;11.030;2023-09-30T17:06:37;17.60;99.90
20398;DHT22;10358;49.590;11.030;2023-09-30T17:09:04;17.50;99.90
20398;DHT22;10358;49.590;11.030;2023-09-30T17:11:30;17.30;99.90
20398;DHT22;10358;49.590;11.030;2023-09-30T17:13:55;17.10;99.90
20398;DHT22;10358;49.590;11.030;2023-09-30T17:16:21;17.00;99.90
20398;DHT22;10358;49.590;11.030;2023-09-30T17:18:48;16.90;99.90
20398;DHT22;10358;49.590;11.030;2023-09-30T17:21:14;16.80;99.90
20398;DHT22;10358;49.590;11.030;2023-09-30T17:23:40;16.70;99.90
20398;DHT22;10358;49.590;11.030;2023-09-30T17:26:07;16.50;99.90
20398;DHT22;10358;49.590;11.030;2023-09-30T17:28:32;16.50;99.90
20398;DHT22;10358;49.590;11.030;2023-09-30T17:31:02;16.40;99.90
20398;DHT22;10358;49.590;11.030;2023-09-30T17:33:29;16.40;99.90
20398;DHT22;10358;49.590;11.030;2023-09-30T17:36:03;16.30;99.90
20398;DHT22;10358;49.590;11.030;2023-09-30T17:38:29;16.30;99.90
20398;DHT22;10358;49.590;11.030;2023-09-30T17:41:06;16.10;99.90
20398;DHT22;10358;49.590;11.030;2023-09-30T17:43:35;16.00;99.90
20398;DHT22;10358;49.590;11.030;2023-09-30T17:46:11;16.00;99.90
20398;DHT22;10358;49.590;11.030;2023-09-30T17:48:38;16.00;99.90
20398;DHT22;10358;49.590;11.030;2023-09-30T17:51:04;15.90;99.90
20398;DHT22;10358;49.590;11.030;2023-09-30T17:53:29;15.80;99.90
20398;DHT22;10358;49.590;11.030;2023-09-30T17:55:56;15.60;99.90
20398;DHT22;10358;49.590;11.030;2023-09-30T17:58:21;15.60;99.90
20398;DHT22;10358;49.590;11.030;2023-09-30T18:00:51;15.50;99.90
20398;DHT22;10358;49.590;11.030;2023-09-30T18:03:17;15.40;99.90
20398;DHT22;10358;49.590;11.030;2023-09-30T18:05:42;15.40;99.90
20398;DHT22;10358;49.590;11.030;2023-09-30T18:08:08;15.30;99.90
20398;DHT22;10358;49.590;11.030;2023-09-30T18:10:34;15.20;99.90
20398;DHT22;10358;49.590;11.030;2023-09-30T18:12:59;15.20;99.90
20398;DHT22;10358;49.590;11.030;2023-09-30T18:15:27;15.10;99.90
20398;DHT22;10358;49.590;11.030;2023-09-30T18:17:53;15.00;99.90
20398;DHT22;10358;49.590;11.030;2023-09-30T18:20:19;15.00;99.90
20398;DHT22;10358;49.590;11.030;2023-09-30T18:22:45;14.80;99.90
20398;DHT22;10358;49.590;11.030;2023-09-30T18:25:10;14.70;99.90
20398;DHT22;10358;49.590;11.030;2023-09-30T18:27:36;14.70;99.90
20398;DHT22;10358;49.590;11.030;2023-09-30T18:30:06;14.60;99.90
20398;DHT22;10358;49.590;11.030;2023-09-30T18:32:32;14.50;99.90
20398;DHT22;10358;49.590;11.030;2023-09-30T18:34:58;14.50;99.90
20398;DHT22;10358;49.590;11.030;2023-09-30T18:37:24;14.50;99.90
20398;DHT22;10358;49.590;11.030;2023-09-30T18:39:50;14.40;99.90
20398;DHT22;10358;49.590;11.030;2023-09-30T18:42:22;14.40;99.90
20398;DHT22;10358;49.590;11.030;2023-09-30T18:44:48;14.40;99.90
20398;DHT22;10358;49.590;11.030;2023-09-30T18:47:13;14.40;99.90
20398;DHT22;10358;49.590;11.030;2023-09-30T18:49:39;14.40;99.90
20398;DHT22;10358;49.590;11.030;2023-09-30T18:52:05;14.30;99.90
20398;DHT22;10358;49.590;11.030;2023-09-30T18:54:31;14.20;99.90
20398;DHT22;10358;49.590;11.030;2023-09-30T18:56:57;14.10;99.90
20398;DHT22;10358;49.590;11.030;2023-09-30T18:59:23;14.10;99.90
20398;DHT22;10358;49.590;11.030;2023-09-30T19:01:50;14.00;99.90
20398;DHT22;10358;49.590;11.030;2023-09-30T19:04:17;14.00;99.90
20398;DHT22;10358;49.590;11.030;2023-09-30T19:06:44;14.00;99.90
20398;DHT22;10358;49.590;11.030;2023-09-30T19:09:11;14.10;99.90
20398;DHT22;10358;49.590;11.030;2023-09-30T19:11:37;14.00;99.90
20398;DHT22;10358;49.590;11.030;2023-09-30T19:14:02;14.00;99.90
20398;DHT22;10358;49.590;11.030;2023-09-30T19:16:31;14.00;99.90
20398;DHT22;10358;49.590;11.030;2023-09-30T19:18:57;14.00;99.90
20398;DHT22;10358;49.590;11.030;2023-09-30T19:21:22;14.00;99.90
20398;DHT22;10358;49.590;11.030;2023-09-30T19:23:48;14.00;99.90
20398;DHT22;10358;49.590;11.030;2023-09-30T19:26:14;13.90;99.90
20398;DHT22;10358;49.590;11.030;2023-09-30T19:28:41;13.80;99.90
20398;DHT22;10358;49.590;11.030;2023-09-30T19:31:11;13.80;99.90
20398;DHT22;10358;49.590;11.030;2023-09-30T19:33:37;13.70;99.90
20398;DHT22;10358;49.590;11.030;2023-09-30T19:36:06;13.70;99.90
20398;DHT22;10358;49.590;11.030;2023-09-30T19:38:33;13.50;99.90
20398;DHT22;10358;49.590;11.030;2023-09-30T19:40:58;13.50;99.90
20398;DHT22;10358;49.590;11.030;2023-09-30T19:43:24;13.30;99.90
20398;DHT22;10358;49.590;11.030;2023-09-30T19:45:57;13.30;99.90
20398;DHT22;10358;49.590;11.030;2023-09-30T19:48:22;13.30;99.90